Time;durP1;ratioP1;P1;durP2;ratioP2;P2;SDS_P1;SDS_P2;PMS_P1;PMS_P2;Temp;Humidity;BMP_temperature;BMP_pressure;BME280_temperature;BME280_humidity;BME280_pressure;Samples;Min_cycle;Max_cycle;Signal;HPM_P1;HPM_P2
2022/04/14 00:00:20;;;;;;;49.63;41.08;;;;;;;12.15;85.63;101787.00;3543848;40;20091;-67
2022/04/14 00:02:46;;;;;;;46.53;39.75;;;;;;;12.14;85.08;101782.53;3536173;40;20852;-66
2022/04/14 00:05:11;;;;;;;52.17;40.42;;;;;;;12.14;85.58;101781.66;3543686;40;20251;-66
2022/04/14 00:07:38;;;;;;;49.60;42.25;;;;;;;12.12;85.88;101778.19;3539223;40;20492;-66
2022/04/14 00:10:05;;;;;;;49.90;41.70;;;;;;;12.12;86.17;101773.69;3543893;40;20335;-66
2022/04/14 00:12:30;;;;;;;49.28;40.22;;;;;;;11.97;85.69;101747.53;3546491;40;20442;-66
2022/04/14 00:14:56;;;;;;;48.75;40.63;;;;;;;12.07;85.88;101759.56;3547930;40;20488;-66
2022/04/14 00:17:22;;;;;;;48.25;40.28;;;;;;;12.12;85.95;101768.28;3536386;40;20054;-66
2022/04/14 00:19:47;;;;;;;46.50;39.40;;;;;;;12.06;85.99;101764.09;3544458;40;20312;-66
2022/04/14 00:22:13;;;;;;;46.20;39.70;;;;;;;11.99;85.34;101749.22;3545160;40;20064;-67
2022/04/14 00:24:38;;;;;;;48.88;39.45;;;;;;;12.03;85.11;101758.00;3540165;40;20068;-66
2022/04/14 00:27:04;;;;;;;44.75;38.42;;;;;;;12.07;85.19;101760.44;3541569;40;20084;-66
2022/04/14 00:29:30;;;;;;;43.33;37.28;;;;;;;12.01;84.88;101757.19;3542387;40;20118;-66
2022/04/14 00:31:56;;;;;;;46.10;37.88;;;;;;;11.97;84.50;101758.31;3536994;40;20053;-66
2022/04/14 00:34:21;;;;;;;43.70;38.00;;;;;;;12.01;84.93;101767.97;3537409;40;20054;-67
2022/04/14 00:36:47;;;;;;;44.90;38.15;;;;;;;12.00;84.99;101760.84;3544748;40;20072;-66
2022/04/14 00:39:12;;;;;;;45.22;36.92;;;;;;;11.95;85.13;101754.81;3531085;40;20073;-66
2022/04/14 00:41:38;;;;;;;45.28;38.72;;;;;;;11.98;84.97;101760.91;3541064;40;20089;-66
2022/04/14 00:44:04;;;;;;;47.08;39.42;;;;;;;11.94;85.79;101753.94;3539548;40;20076;-67
2022/04/14 00:46:30;;;;;;;45.72;39.47;;;;;;;11.93;85.93;101748.66;3542272;40;20100;-67
2022/04/14 00:48:56;;;;;;;44.47;38.90;;;;;;;11.99;86.21;101762.69;3532786;40;20692;-66
2022/04/14 00:51:22;;;;;;;46.10;39.05;;;;;;;12.00;85.87;101763.53;3540988;40;20058;-66
2022/04/14 00:53:48;;;;;;;49.75;40.22;;;;;;;12.00;85.99;101763.53;3532587;40;20072;-67
2022/04/14 00:56:14;;;;;;;49.38;40.58;;;;;;;11.99;85.62;101768.06;3541974;40;21874;-66
2022/04/14 00:58:43;;;;;;;45.03;40.10;;;;;;;11.87;86.16;101748.97;3541217;40;20056;-65
2022/04/14 01:01:09;;;;;;;48.75;40.15;;;;;;;11.97;86.04;101764.56;3542155;40;20065;-66
2022/04/14 01:03:36;;;;;;;48.08;40.70;;;;;;;11.97;86.46;101764.56;3524776;40;20281;-66
2022/04/14 01:06:04;;;;;;;51.92;40.22;;;;;;;11.92;85.86;101761.22;3540280;40;20050;-65
2022/04/14 01:08:32;;;;;;;45.78;39.75;;;;;;;11.96;86.14;101768.22;3539586;40;20176;-65
2022/04/14 01:10:59;;;;;;;47.65;40.03;;;;;;;11.95;86.25;101769.16;3536366;40;20102;-66
2022/04/14 01:13:24;;;;;;;47.00;40.00;;;;;;;11.88;85.93;101761.50;3543577;40;20063;-69
2022/04/14 01:15:58;;;;;;;46.58;39.47;;;;;;;11.93;86.13;101764.81;3542099;40;20725;-68
2022/04/14 01:18:25;;;;;;;45.13;38.55;;;;;;;11.89;85.73;101766.78;3533615;40;20053;-66
2022/04/14 01:20:51;;;;;;;46.13;38.15;;;;;;;11.87;85.58;101757.06;3542879;40;20659;-65
2022/04/14 01:23:39;;;;;;;44.45;37.75;;;;;;;11.74;85.37;101740.63;3545126;40;20399;-66
2022/04/14 01:26:05;;;;;;;46.55;40.20;;;;;;;11.76;86.00;101744.97;3536661;40;20485;-66
2022/04/14 01:28:31;;;;;;;45.85;38.17;;;;;;;11.86;86.32;101758.84;3544367;40;20046;-66
2022/04/14 01:30:56;;;;;;;47.50;39.47;;;;;;;11.46;85.75;101692.72;3545642;40;20067;-66
2022/04/14 01:33:22;;;;;;;46.95;38.92;;;;;;;11.79;86.35;101752.88;3545517;40;20065;-66
2022/04/14 01:35:47;;;;;;;47.00;40.15;;;;;;;11.83;86.45;101762.56;3530661;40;20065;-66
2022/04/14 01:38:13;;;;;;;48.88;38.28;;;;;;;11.82;86.22;101760.81;3541721;40;20113;-65
2022/04/14 01:40:39;;;;;;;48.38;39.38;;;;;;;11.81;86.42;101759.06;3536257;40;20476;-65
2022/04/14 01:43:05;;;;;;;52.72;41.95;;;;;;;11.81;86.42;101760.91;3538115;40;20061;-65
2022/04/14 01:45:30;;;;;;;51.17;40.67;;;;;;;11.80;86.94;101762.72;3540757;40;20054;-66
2022/04/14 01:47:56;;;;;;;53.47;42.70;;;;;;;11.80;86.94;101760.03;3540201;40;20081;-66
2022/04/14 01:50:22;;;;;;;53.92;43.15;;;;;;;11.67;87.15;101734.69;3531548;40;20634;-66
2022/04/14 01:52:48;;;;;;;54.72;42.28;;;;;;;11.77;87.33;101748.56;3538796;40;20058;-66
2022/04/14 01:55:13;;;;;;;53.92;42.35;;;;;;;11.83;87.12;101759.88;3544123;40;20098;-65
2022/04/14 01:57:40;;;;;;;50.03;40.72;;;;;;;11.83;86.99;101757.19;3533472;40;20072;-67
2022/04/14 02:00:08;;;;;;;48.47;40.75;;;;;;;11.66;87.21;101735.63;3540562;40;20411;-67
2022/04/14 02:02:34;;;;;;;51.38;39.67;;;;;;;11.66;86.59;101748.22;3542212;40;20045;-66
2022/04/14 02:05:00;;;;;;;51.53;42.33;;;;;;;11.64;86.32;101745.63;3532905;40;20077;-67
2022/04/14 02:07:26;;;;;;;54.20;41.67;;;;;;;11.73;86.23;101769.38;3542800;40;20089;-66
2022/04/14 02:09:51;;;;;;;55.42;43.00;;;;;;;11.72;86.83;101764.94;3540784;40;20054;-66
2022/04/14 02:12:17;;;;;;;53.90;40.83;;;;;;;11.69;86.62;101758.84;3535234;40;20584;-66
2022/04/14 02:14:43;;;;;;;46.03;39.70;;;;;;;11.73;86.10;101771.19;3534456;40;20062;-66
2022/04/14 02:17:09;;;;;;;53.47;42.00;;;;;;;11.72;87.33;101770.31;3542422;40;20419;-65
2022/04/14 02:19:34;;;;;;;52.30;41.75;;;;;;;11.74;86.83;101773.81;3540153;40;20065;-66
2022/04/14 02:22:00;;;;;;;54.80;42.58;;;;;;;11.66;86.92;101759.00;3532746;40;20106;-66
2022/04/14 02:24:26;;;;;;;54.58;41.25;;;;;;;11.73;86.62;101772.06;3542563;40;20053;-66
2022/04/14 02:26:53;;;;;;;52.63;41.33;;;;;;;11.73;86.65;101776.59;3539249;40;20066;-67
2022/04/14 02:29:19;;;;;;;55.97;44.65;;;;;;;11.62;86.55;101760.97;3535444;40;20098;-67
2022/04/14 02:31:45;;;;;;;52.22;41.95;;;;;;;11.70;86.69;101777.59;3532714;40;20057;-66
2022/04/14 02:34:11;;;;;;;53.13;43.03;;;;;;;11.67;86.69;101776.91;3542780;40;20327;-66
2022/04/14 02:36:37;;;;;;;51.40;41.35;;;;;;;11.68;86.42;101787.59;3530825;40;20050;-64
2022/04/14 02:39:03;;;;;;;51.85;40.65;;;;;;;11.67;86.04;101787.66;3539201;40;20056;-64
2022/04/14 02:41:28;;;;;;;49.35;39.63;;;;;;;11.64;85.89;101783.34;3541469;40;20057;-63
2022/04/14 02:43:54;;;;;;;49.78;39.70;;;;;;;11.66;86.21;101792.19;3532265;40;20057;-64
2022/04/14 02:46:19;;;;;;;53.70;41.75;;;;;;;11.66;85.95;101789.50;3538609;40;20058;-64
2022/04/14 02:48:45;;;;;;;47.80;38.72;;;;;;;11.62;85.63;101786.09;3537692;40;20050;-64
2022/04/14 02:51:11;;;;;;;55.15;40.25;;;;;;;11.64;85.66;101786.03;3539954;40;20062;-64
2022/04/14 02:53:37;;;;;;;50.35;39.55;;;;;;;11.63;85.23;101786.97;3530551;40;20062;-63
2022/04/14 02:56:05;;;;;;;45.05;36.95;;;;;;;11.59;84.97;101785.38;3538836;40;20475;-64
2022/04/14 02:58:31;;;;;;;46.40;38.25;;;;;;;11.58;84.36;101786.34;3539277;40;20081;-64
2022/04/14 03:00:58;;;;;;;46.10;36.65;;;;;;;11.55;84.67;101784.66;3543406;23;20106;-64
2022/04/14 03:03:24;;;;;;;47.65;38.60;;;;;;;11.53;84.64;101785.69;3533399;40;20408;-64
2022/04/14 03:05:50;;;;;;;50.33;40.42;;;;;;;11.50;85.04;101785.84;3529746;40;20054;-65
2022/04/14 03:08:17;;;;;;;54.72;43.35;;;;;;;11.48;85.46;101787.72;3525525;40;20057;-64
2022/04/14 03:10:43;;;;;;;51.15;40.95;;;;;;;11.44;86.03;101780.75;3527469;40;20076;-65
2022/04/14 03:13:08;;;;;;;51.35;41.00;;;;;;;11.42;85.41;101782.66;3526803;40;20054;-65
2022/04/14 03:15:34;;;;;;;50.67;40.47;;;;;;;11.34;85.83;101773.13;3518474;40;20174;-64
2022/04/14 03:18:00;;;;;;;48.78;38.95;;;;;;;11.33;85.60;101774.09;3519826;40;20218;-65
2022/04/14 03:20:25;;;;;;;48.53;39.53;;;;;;;11.13;85.82;101752.66;3525231;40;20078;-65
2022/04/14 03:22:51;;;;;;;53.63;41.28;;;;;;;11.30;86.09;101782.31;3512922;40;20069;-65
2022/04/14 03:25:17;;;;;;;47.78;39.80;;;;;;;11.29;85.52;101793.16;3527059;40;20055;-64
2022/04/14 03:27:42;;;;;;;52.58;41.28;;;;;;;11.21;85.77;101779.22;3521425;40;20081;-64
2022/04/14 03:30:12;;;;;;;54.70;41.08;;;;;;;11.22;85.73;101786.34;3526966;40;20051;-65
2022/04/14 03:32:44;;;;;;;54.70;41.60;;;;;;;11.19;85.54;101789.19;3516185;40;20318;-64
2022/04/14 03:35:11;;;;;;;51.88;40.22;;;;;;;11.02;85.52;101771.16;3528134;40;20325;-65
2022/04/14 03:37:37;;;;;;;52.38;41.00;;;;;;;10.99;85.36;101774.00;3526140;40;20046;-64
2022/04/14 03:40:05;;;;;;;52.85;42.80;;;;;;;11.05;85.56;101782.66;3516332;40;20110;-65
2022/04/14 03:42:31;;;;;;;60.33;45.40;;;;;;;11.07;86.45;101793.34;3526570;40;20393;-64
2022/04/14 03:44:58;;;;;;;62.78;44.17;;;;;;;11.08;87.18;101789.72;3524750;40;20157;-64
2022/04/14 03:47:25;;;;;;;64.00;46.38;;;;;;;11.09;86.95;101791.44;3516313;40;20112;-65
2022/04/14 03:49:51;;;;;;;57.08;43.65;;;;;;;11.10;87.44;101782.41;3525322;40;20101;-64
2022/04/14 03:52:17;;;;;;;73.03;48.78;;;;;;;11.12;87.32;101781.41;3526731;40;20075;-65
2022/04/14 03:54:44;;;;;;;87.80;50.55;;;;;;;11.19;88.34;101781.97;3512225;40;20271;-65
2022/04/14 03:57:10;;;;;;;86.47;50.88;;;;;;;11.23;88.80;101778.19;3522887;40;20313;-64
2022/04/14 03:59:36;;;;;;;80.47;53.00;;;;;;;11.26;88.60;101778.06;3525520;40;20429;-62
2022/04/14 04:02:02;;;;;;;96.22;52.97;;;;;;;11.27;88.67;101774.41;3516458;40;20069;-63
2022/04/14 04:04:27;;;;;;;85.70;53.30;;;;;;;11.33;88.64;101776.78;3520551;40;20079;-63
2022/04/14 04:06:53;;;;;;;83.90;54.85;;;;;;;11.35;89.05;101782.97;3521273;40;20665;-63
2022/04/14 04:09:18;;;;;;;100.10;52.70;;;;;;;11.33;88.47;101778.63;3523030;40;20059;-63
2022/04/14 04:11:44;;;;;;;97.93;53.63;;;;;;;11.27;88.48;101771.72;3514014;40;20062;-63
2022/04/14 04:14:10;;;;;;;130.68;54.75;;;;;;;11.37;89.09;101786.44;3524638;40;20290;-63
2022/04/14 04:16:35;;;;;;;83.50;55.17;;;;;;;11.30;88.97;101786.84;3520095;40;20059;-63
2022/04/14 04:19:01;;;;;;;97.75;54.35;;;;;;;11.34;89.22;101788.44;3520288;40;20043;-63
2022/04/14 04:21:29;;;;;;;120.38;53.40;;;;;;;11.34;89.54;101800.06;3520996;40;20067;-63
2022/04/14 04:23:55;;;;;;;103.95;51.03;;;;;;;11.36;89.38;101800.88;3519973;40;20058;-63
2022/04/14 04:26:20;;;;;;;94.88;52.58;;;;;;;11.37;89.64;101810.69;3515176;40;20077;-63
2022/04/14 04:28:46;;;;;;;96.63;52.97;;;;;;;11.37;89.12;101807.13;3521056;40;20339;-63
2022/04/14 04:31:12;;;;;;;114.07;50.72;;;;;;;11.35;89.44;101800.94;3524299;40;20058;-63
2022/04/14 04:33:37;;;;;;;99.45;50.95;;;;;;;11.34;89.69;101810.81;3517310;40;20314;-63
2022/04/14 04:36:04;;;;;;;89.15;51.95;;;;;;;11.30;89.06;101813.75;3523153;40;20059;-63
2022/04/14 04:38:29;;;;;;;81.18;49.30;;;;;;;11.29;89.41;101809.31;3528592;40;20100;-63
2022/04/14 04:40:58;;;;;;;103.32;49.72;;;;;;;11.27;89.57;101821.97;3514557;40;20472;-63
2022/04/14 04:43:24;;;;;;;75.15;50.40;;;;;;;11.28;89.26;101818.34;3525918;40;20051;-63
2022/04/14 04:45:50;;;;;;;70.30;48.72;;;;;;;11.23;89.25;101818.56;3523197;40;20058;-63
2022/04/14 04:48:15;;;;;;;78.72;49.03;;;;;;;11.12;89.50;101802.06;3517533;40;20054;-62
2022/04/14 04:50:41;;;;;;;73.18;48.70;;;;;;;11.25;89.37;101823.88;3523061;40;20114;-62
2022/04/14 04:53:07;;;;;;;87.78;50.80;;;;;;;11.10;89.43;101796.78;3518362;40;20062;-62
2022/04/14 04:55:33;;;;;;;95.75;49.50;;;;;;;11.20;88.94;101821.41;3519157;40;20067;-62
2022/04/14 04:57:58;;;;;;;72.82;52.17;;;;;;;11.17;89.09;101824.25;3517762;40;20058;-62
2022/04/14 05:00:24;;;;;;;89.35;49.20;;;;;;;11.15;89.17;101831.50;3523560;40;20065;-62
2022/04/14 05:02:49;;;;;;;92.15;48.85;;;;;;;11.12;89.22;101828.97;3514537;40;20462;-62
2022/04/14 05:05:15;;;;;;;74.60;47.55;;;;;;;11.05;89.05;101816.75;3523743;40;20058;-62
2022/04/14 05:07:41;;;;;;;74.65;49.13;;;;;;;11.08;88.98;101832.75;3519430;40;20062;-62
2022/04/14 05:10:07;;;;;;;87.57;48.20;;;;;;;11.01;89.16;101825.94;3522170;40;20345;-62
2022/04/14 05:12:32;;;;;;;70.97;48.45;;;;;;;10.99;89.50;101825.13;3515707;40;20125;-62
2022/04/14 05:14:58;;;;;;;71.80;47.72;;;;;;;11.03;89.25;101832.09;3521967;40;20137;-62
2022/04/14 05:17:24;;;;;;;71.20;48.15;;;;;;;11.01;89.01;101837.56;3525332;40;20050;-62
2022/04/14 05:19:49;;;;;;;70.18;49.88;;;;;;;11.00;89.07;101837.63;3514914;40;20320;-62
2022/04/14 05:22:15;;;;;;;64.22;48.22;;;;;;;11.00;89.27;101834.94;3521616;40;20082;-64
2022/04/14 05:24:40;;;;;;;65.95;47.05;;;;;;;10.99;89.39;101835.88;3518187;40;20051;-61
2022/04/14 05:27:06;;;;;;;63.78;48.42;;;;;;;10.95;89.05;101832.47;3513332;40;20160;-62
2022/04/14 05:29:31;;;;;;;55.78;45.40;;;;;;;10.93;88.30;101835.22;3521217;40;20162;-62
2022/04/14 05:31:57;;;;;;;64.28;45.25;;;;;;;10.91;88.50;101839.81;3522361;40;20113;-63
2022/04/14 05:34:23;;;;;;;57.83;44.40;;;;;;;10.84;87.89;101842.84;3521474;40;20089;-63
2022/04/14 05:36:49;;;;;;;59.90;44.67;;;;;;;10.86;88.68;101847.22;3514422;40;20653;-62
2022/04/14 05:39:15;;;;;;;57.95;45.63;;;;;;;10.85;87.95;101852.69;3519588;40;20045;-62
2022/04/14 05:41:41;;;;;;;57.95;44.75;;;;;;;10.85;88.47;101852.69;3522704;40;20053;-62
2022/04/14 05:44:07;;;;;;;57.47;44.60;;;;;;;10.84;87.72;101857.16;3515452;40;20058;-63
2022/04/14 05:46:33;;;;;;;55.55;44.00;;;;;;;10.86;88.19;101862.50;3521101;40;20102;-61
2022/04/14 05:48:58;;;;;;;56.13;43.53;;;;;;;10.86;88.05;101859.81;3521984;40;20059;-62
2022/04/14 05:51:24;;;;;;;53.95;41.35;;;;;;;10.88;87.52;101863.31;3517203;40;20381;-62
2022/04/14 05:53:51;;;;;;;50.20;39.15;;;;;;;10.88;86.69;101864.19;3518806;40;20066;-63
2022/04/14 05:56:17;;;;;;;47.75;39.22;;;;;;;10.89;87.09;101865.03;3521315;40;20047;-62
2022/04/14 05:58:47;;;;;;;47.67;37.95;;;;;;;10.75;86.60;101836.09;3513320;40;20054;-64
2022/04/14 06:01:13;;;;;;;47.55;37.47;;;;;;;10.94;86.98;101865.69;3524031;40;20113;-62
2022/04/14 06:03:40;;;;;;;45.95;37.05;;;;;;;10.98;86.50;101869.13;3519202;40;20043;-63
2022/04/14 06:06:07;;;;;;;46.00;38.60;;;;;;;11.01;86.51;101868.97;3514970;40;20136;-63
2022/04/14 06:08:33;;;;;;;45.28;36.40;;;;;;;11.04;86.62;101869.72;3521879;40;20073;-62
2022/04/14 06:10:58;;;;;;;46.47;37.08;;;;;;;11.07;85.97;101874.09;3516743;40;20257;-63
2022/04/14 06:13:24;;;;;;;42.42;36.53;;;;;;;11.10;86.71;101874.81;3522024;40;20398;-62
2022/04/14 06:15:49;;;;;;;43.10;35.65;;;;;;;11.17;86.07;101870.00;3510448;40;20057;-62
2022/04/14 06:18:15;;;;;;;43.88;34.30;;;;;;;11.25;85.95;101875.00;3522706;40;20333;-63
2022/04/14 06:20:41;;;;;;;41.38;36.45;;;;;;;11.32;85.80;101869.28;3521040;40;20050;-62
2022/04/14 06:23:08;;;;;;;43.83;36.25;;;;;;;11.39;86.09;101873.41;3516397;40;20063;-63
2022/04/14 06:25:34;;;;;;;44.92;36.03;;;;;;;11.51;86.47;101881.81;3518474;40;20093;-62
2022/04/14 06:27:59;;;;;;;43.53;35.72;;;;;;;11.62;86.02;101876.78;3520767;40;20706;-63
2022/04/14 06:30:25;;;;;;;43.90;35.35;;;;;;;11.66;85.47;101861.34;3523172;40;20054;-64
2022/04/14 06:33:04;;;;;;;40.90;33.70;;;;;;;11.84;84.85;101877.50;3513127;40;20050;-62
2022/04/14 06:35:30;;;;;;;39.75;34.03;;;;;;;11.91;84.40;101871.81;3522844;40;20087;-62
2022/04/14 06:37:57;;;;;;;37.90;32.53;;;;;;;12.13;84.60;101875.13;3513741;40;20097;-62
2022/04/14 06:40:23;;;;;;;37.00;30.98;;;;;;;12.36;83.38;101878.47;3523300;40;20050;-63
2022/04/14 06:42:49;;;;;;;33.70;29.55;;;;;;;12.64;82.01;101880.56;3517191;40;20148;-64
2022/04/14 06:45:19;;;;;;;32.53;28.38;;;;;;;12.93;80.56;101874.44;3524216;40;20087;-62
2022/04/14 06:47:45;;;;;;;31.27;27.88;;;;;;;13.22;80.03;101880.06;3511764;40;20050;-62
2022/04/14 06:50:11;;;;;;;30.40;26.70;;;;;;;13.47;78.40;101880.44;3523494;40;20377;-62
2022/04/14 06:52:38;;;;;;;33.75;26.50;;;;;;;13.74;77.65;101882.53;3517379;40;20047;-62
2022/04/14 06:55:06;;;;;;;27.67;24.67;;;;;;;13.93;75.35;101876.91;3524749;40;20073;-62
2022/04/14 06:57:32;;;;;;;26.98;24.00;;;;;;;14.14;74.78;101885.56;3521126;40;20043;-62
2022/04/14 06:59:57;;;;;;;27.55;24.63;;;;;;;14.35;74.70;101888.81;3522623;40;20491;-62
2022/04/14 07:02:23;;;;;;;30.45;23.98;;;;;;;14.52;73.72;101877.00;3516368;40;20094;-63
2022/04/14 07:04:49;;;;;;;28.38;23.73;;;;;;;14.71;74.26;101874.00;3517386;40;20106;-63
2022/04/14 07:07:15;;;;;;;25.70;22.80;;;;;;;14.88;72.35;101881.97;3520170;40;20358;-63
2022/04/14 07:09:40;;;;;;;25.88;23.17;;;;;;;15.05;73.27;101868.22;3515053;40;20050;-62
2022/04/14 07:12:07;;;;;;;26.30;22.98;;;;;;;15.28;71.97;101882.97;3518253;40;20307;-63
2022/04/14 07:14:32;;;;;;;27.27;23.30;;;;;;;15.45;70.36;101881.91;3523235;40;20053;-62
2022/04/14 07:17:00;;;;;;;28.48;23.10;;;;;;;15.50;69.42;101882.44;3520221;40;20397;-63
2022/04/14 07:19:27;;;;;;;26.88;23.98;;;;;;;15.63;70.62;101878.94;3517922;40;20102;-63
2022/04/14 07:21:53;;;;;;;25.88;23.20;;;;;;;15.82;69.62;101901.16;3520753;40;20046;-63
2022/04/14 07:24:19;;;;;;;27.25;24.00;;;;;;;15.93;68.35;101895.03;3521675;40;20061;-63
2022/04/14 07:26:46;;;;;;;26.02;23.30;;;;;;;16.08;68.68;101895.81;3524204;40;20042;-62
2022/04/14 07:29:12;;;;;;;29.98;23.90;;;;;;;16.24;67.24;101896.53;3524095;40;20047;-62
2022/04/14 07:31:39;;;;;;;26.30;23.27;;;;;;;16.39;67.09;101900.00;3521298;40;20097;-62
2022/04/14 07:34:06;;;;;;;24.83;22.25;;;;;;;16.51;66.94;101901.03;3515376;40;20505;-63
2022/04/14 07:36:32;;;;;;;25.13;21.52;;;;;;;16.62;66.91;101896.59;3526123;40;20095;-62
2022/04/14 07:38:58;;;;;;;23.42;20.83;;;;;;;16.74;66.19;101900.25;3517429;40;20073;-62
2022/04/14 07:41:24;;;;;;;23.35;20.80;;;;;;;16.92;66.40;101895.41;3526251;40;20069;-63
2022/04/14 07:43:50;;;;;;;21.48;19.10;;;;;;;17.12;63.98;101907.56;3520553;40;20626;-63
2022/04/14 07:46:15;;;;;;;21.15;17.75;;;;;;;17.10;62.51;101875.06;3526680;40;20089;-62
2022/04/14 07:48:41;;;;;;;17.95;15.73;;;;;;;17.25;62.47;101904.81;3524196;40;20066;-62
2022/04/14 07:51:08;;;;;;;19.38;16.02;;;;;;;17.35;62.88;101901.34;3517272;40;20050;-63
2022/04/14 07:53:34;;;;;;;18.58;16.50;;;;;;;17.46;61.66;101903.25;3522078;40;20413;-62
2022/04/14 07:56:00;;;;;;;20.42;16.67;;;;;;;17.62;62.86;101902.97;3520176;40;20137;-62
2022/04/14 07:58:26;;;;;;;19.00;15.20;;;;;;;17.80;61.13;101904.38;3519273;40;20054;-63
2022/04/14 08:00:52;;;;;;;17.08;14.07;;;;;;;17.99;59.60;101889.38;3519772;40;20147;-63
2022/04/14 08:03:18;;;;;;;15.57;12.52;;;;;;;18.26;58.11;101906.28;3523293;40;20055;-62
2022/04/14 08:05:47;;;;;;;14.68;13.07;;;;;;;18.46;58.30;101910.19;3511899;40;20672;-61
2022/04/14 08:08:19;;;;;;;14.80;12.07;;;;;;;18.62;56.70;101901.69;3525365;40;20368;-62
2022/04/14 08:10:49;;;;;;;14.40;12.85;;;;;;;18.83;58.35;101901.00;3516933;40;20060;-63
2022/04/14 08:13:17;;;;;;;16.33;13.23;;;;;;;18.88;56.54;101868.81;3523424;40;20293;-62
2022/04/14 08:15:44;;;;;;;14.80;12.75;;;;;;;19.19;56.08;101903.50;3523666;40;20074;-61
2022/04/14 08:18:09;;;;;;;14.80;12.73;;;;;;;19.36;54.42;101906.72;3526234;40;20094;-61
2022/04/14 08:20:40;;;;;;;12.98;11.60;;;;;;;19.54;53.61;101905.22;3516714;40;20059;-61
2022/04/14 08:23:12;;;;;;;14.23;12.50;;;;;;;19.63;53.41;101909.00;3526623;40;20054;-61
2022/04/14 08:25:41;;;;;;;16.02;12.25;;;;;;;19.81;53.56;101901.19;3518687;40;20387;-61
2022/04/14 08:28:07;;;;;;;14.60;11.13;;;;;;;19.94;51.63;101910.06;3526931;40;20066;-61
2022/04/14 08:30:36;;;;;;;13.88;10.65;;;;;;;20.11;50.27;101912.25;3524301;40;20503;-60
2022/04/14 08:33:06;;;;;;;13.80;10.50;;;;;;;20.26;50.48;101914.66;3521220;40;21068;-61
2022/04/14 08:35:33;;;;;;;12.57;11.15;;;;;;;20.39;50.62;101907.16;3518730;40;20074;-61
2022/04/14 08:38:06;;;;;;;13.50;11.18;;;;;;;20.45;49.58;101909.34;3525161;40;20059;-62
2022/04/14 08:40:39;;;;;;;12.95;10.13;;;;;;;20.67;49.50;101910.25;3519318;40;20298;-62
2022/04/14 08:43:08;;;;;;;11.75;10.40;;;;;;;20.77;50.16;101903.88;3527675;40;20058;-62
2022/04/14 08:45:44;;;;;;;11.43;9.23;;;;;;;20.79;48.46;101900.97;3525103;40;20324;-62
2022/04/14 08:48:12;;;;;;;9.00;7.88;;;;;;;20.91;48.10;101899.03;3525488;40;20062;-61
2022/04/14 08:50:38;;;;;;;10.48;8.70;;;;;;;20.90;47.38;101886.34;3515138;40;20054;-61
2022/04/14 08:53:05;;;;;;;11.23;9.02;;;;;;;21.00;48.14;101893.63;3526096;40;20130;-61
2022/04/14 08:55:31;;;;;;;11.52;9.10;;;;;;;20.81;47.62;101833.41;3520170;40;20123;-61
2022/04/14 08:57:57;;;;;;;10.15;7.50;;;;;;;21.26;47.43;101893.16;3524544;40;20062;-61
2022/04/14 09:00:23;;;;;;;9.02;7.45;;;;;;;21.36;46.89;101895.94;3548229;23;20072;-68
2022/04/14 09:02:51;;;;;;;10.32;7.68;;;;;;;21.42;46.16;101898.13;3535962;40;20057;-68
2022/04/14 09:05:17;;;;;;;14.25;8.13;;;;;;;21.58;46.45;101900.34;3544277;40;20045;-68
2022/04/14 09:07:51;;;;;;;8.05;6.60;;;;;;;21.65;45.84;101898.75;3531634;40;20105;-68
2022/04/14 09:10:19;;;;;;;10.40;7.25;;;;;;;21.61;45.96;101902.78;3537010;40;20089;-66
2022/04/14 09:12:47;;;;;;;10.48;6.85;;;;;;;21.63;46.26;101903.50;3533436;40;20848;-67
2022/04/14 09:15:13;;;;;;;9.57;6.78;;;;;;;21.61;44.95;101909.13;3539975;40;20065;-66
2022/04/14 09:17:39;;;;;;;9.00;7.55;;;;;;;21.72;46.33;101908.13;3537324;40;20050;-67
2022/04/14 09:20:38;;;;;;;11.07;7.63;;;;;;;21.71;46.40;101899.06;3544391;40;20671;-66
2022/04/14 09:23:23;;;;;;;10.50;7.07;;;;;;;21.68;45.31;101876.59;3528839;40;20062;-67
2022/04/14 09:26:13;;;;;;;11.38;7.07;;;;;;;21.58;44.24;101889.38;3523551;40;20529;-67
2022/04/14 09:29:00;;;;;;;9.50;6.57;;;;;;;21.63;44.13;101885.22;3541688;40;20425;-66
2022/04/14 09:31:27;;;;;;;9.07;6.45;;;;;;;21.65;43.53;101887.81;3538400;40;20057;-67
2022/04/14 09:33:53;;;;;;;8.57;6.28;;;;;;;21.79;44.99;101885.53;3537125;40;20087;-67
2022/04/14 09:36:20;;;;;;;12.38;7.20;;;;;;;21.88;43.72;101883.78;3537889;40;20065;-66
2022/04/14 09:38:58;;;;;;;9.05;6.70;;;;;;;22.11;44.19;101883.53;3526862;40;20131;-67
2022/04/14 09:41:41;;;;;;;9.48;6.47;;;;;;;22.16;43.80;101878.50;3539256;40;20101;-67
2022/04/14 09:44:14;;;;;;;8.38;6.30;;;;;;;22.23;42.76;101880.53;3536074;40;20049;-67
2022/04/14 09:46:45;;;;;;;7.10;6.40;;;;;;;22.39;42.99;101871.72;3533617;40;20054;-67
2022/04/14 09:49:18;;;;;;;10.13;6.78;;;;;;;22.33;41.60;101850.41;3532854;40;20106;-66
2022/04/14 09:51:47;;;;;;;9.32;7.07;;;;;;;22.74;42.26;101864.72;3533129;40;20112;-66
2022/04/14 09:54:19;;;;;;;6.72;5.40;;;;;;;22.80;41.23;101858.63;3530518;40;20061;-66
2022/04/14 09:56:55;;;;;;;9.35;6.00;;;;;;;22.94;41.71;101858.19;3528810;40;20046;-66
2022/04/14 09:59:30;;;;;;;6.38;5.75;;;;;;;22.88;41.68;101835.94;3536965;40;20061;-66
2022/04/14 10:02:12;;;;;;;5.93;5.22;;;;;;;22.96;41.22;101858.00;3535056;40;20077;-66
2022/04/14 10:04:43;;;;;;;7.15;4.72;;;;;;;23.03;41.42;101864.66;3532913;40;20046;-67
2022/04/14 10:07:14;;;;;;;5.82;4.78;;;;;;;23.15;39.14;101851.56;3536356;40;20054;-66
2022/04/14 10:09:43;;;;;;;5.68;4.68;;;;;;;23.27;41.01;101850.34;3523639;40;20384;-67
2022/04/14 10:12:18;;;;;;;5.70;4.72;;;;;;;23.39;39.37;101838.16;3536884;40;20419;-66
2022/04/14 10:15:05;;;;;;;5.53;4.45;;;;;;;23.43;39.08;101865.28;3526355;40;20439;-66
2022/04/14 10:17:35;;;;;;;5.47;4.40;;;;;;;23.45;38.28;101869.63;3537334;40;20054;-66
2022/04/14 10:20:09;;;;;;;5.65;3.78;;;;;;;23.49;37.51;101872.91;3536936;40;20664;-66
2022/04/14 10:22:38;;;;;;;5.10;2.83;;;;;;;23.70;36.79;101878.16;3533763;40;20389;-67
2022/04/14 10:25:05;;;;;;;3.58;3.00;;;;;;;23.73;36.81;101883.34;3529409;40;20057;-66
2022/04/14 10:27:33;;;;;;;3.55;3.25;;;;;;;23.36;36.33;101879.63;3542286;40;20316;-66
2022/04/14 10:29:59;;;;;;;4.63;3.33;;;;;;;22.93;36.90;101889.38;3525251;40;20058;-67
2022/04/14 10:32:26;;;;;;;3.50;2.78;;;;;;;22.39;37.83;101885.44;3534723;40;20091;-67
2022/04/14 10:34:52;;;;;;;3.10;2.72;;;;;;;22.06;38.57;101899.53;3532305;40;20070;-66
2022/04/14 10:37:55;;;;;;;6.68;3.70;;;;;;;21.80;39.39;101889.13;3535821;40;20081;-66
2022/04/14 10:40:21;;;;;;;5.30;4.25;;;;;;;21.67;40.65;101908.56;3524821;40;20062;-66
2022/04/14 10:42:55;;;;;;;5.53;4.50;;;;;;;21.34;40.81;101898.78;3534209;40;20062;-66
2022/04/14 10:45:23;;;;;;;5.60;4.55;;;;;;;21.30;41.33;101911.00;3527275;40;20409;-66
2022/04/14 10:47:54;;;;;;;7.13;4.60;;;;;;;21.40;40.92;101897.38;3525618;40;20068;-67
2022/04/14 10:50:29;;;;;;;5.28;3.80;;;;;;;21.76;40.57;101904.13;3536323;40;20054;-67
2022/04/14 10:53:19;;;;;;;5.25;3.50;;;;;;;22.10;40.37;101903.69;3533533;40;20093;-67
2022/04/14 10:55:48;;;;;;;4.75;3.75;;;;;;;22.34;39.37;101893.22;3521781;40;20124;-67
2022/04/14 10:58:28;;;;;;;6.07;4.00;;;;;;;22.24;38.64;101889.63;3538501;40;20152;-66
2022/04/14 11:00:56;;;;;;;4.75;3.90;;;;;;;22.33;40.08;101898.81;3524661;40;20078;-67
2022/04/14 11:03:49;;;;;;;4.72;3.42;;;;;;;22.64;38.63;101886.66;3538660;40;20069;-67
2022/04/14 11:06:39;;;;;;;4.47;3.45;;;;;;;22.47;37.28;101890.16;3538267;40;20054;-66
2022/04/14 11:09:06;;;;;;;3.47;3.15;;;;;;;22.62;38.39;101883.22;3536522;40;20054;-66
2022/04/14 11:11:59;;;;;;;6.13;3.20;;;;;;;23.00;36.45;101891.50;3527975;40;20065;-66
2022/04/14 11:14:25;;;;;;;4.75;2.90;;;;;;;22.69;36.96;101895.31;3540126;40;20057;-67